Time;durP1;ratioP1;P1;durP2;ratioP2;P2;SDS_P1;SDS_P2;PMS_P1;PMS_P2;Temp;Humidity;BMP_temperature;BMP_pressure;BME280_temperature;BME280_humidity;BME280_pressure;Samples;Min_cycle;Max_cycle;Signal;HPM_P1;HPM_P2
2023/03/07 00:02:20;;;;;;;0.60;0.47;;;14.90;68.40;;;;;;4995819;28;20126;-69
2023/03/07 00:04:46;;;;;;;0.30;0.30;;;14.90;68.50;;;;;;4996004;28;20493;-69
2023/03/07 00:07:12;;;;;;;0.32;0.32;;;14.90;68.40;;;;;;4995913;28;20031;-69
2023/03/07 00:09:37;;;;;;;0.40;0.40;;;14.90;68.40;;;;;;4994515;28;20015;-69
2023/03/07 00:12:03;;;;;;;0.52;0.52;;;14.80;68.60;;;;;;4995963;28;20053;-69
2023/03/07 00:14:29;;;;;;;0.50;0.50;;;14.90;68.50;;;;;;4996022;28;20018;-69
2023/03/07 00:16:54;;;;;;;0.57;0.57;;;14.90;68.60;;;;;;4995474;28;20031;-69
2023/03/07 00:19:20;;;;;;;0.57;0.50;;;14.80;68.60;;;;;;4995688;28;20026;-69
2023/03/07 00:21:46;;;;;;;0.40;0.40;;;14.80;68.60;;;;;;4993935;28;20456;-69
2023/03/07 00:24:11;;;;;;;0.80;0.40;;;14.80;68.60;;;;;;4995489;28;20448;-69
2023/03/07 00:26:38;;;;;;;0.50;0.50;;;14.80;68.70;;;;;;4994164;28;20105;-69
2023/03/07 00:29:08;;;;;;;1.30;0.70;;;14.80;68.50;;;;;;4995587;28;20018;-69
2023/03/07 00:31:34;;;;;;;0.50;0.50;;;14.80;68.60;;;;;;4993970;28;20507;-69
2023/03/07 00:33:59;;;;;;;0.57;0.40;;;14.80;68.70;;;;;;4994236;28;20033;-69
2023/03/07 00:36:25;;;;;;;1.35;0.60;;;14.80;68.90;;;;;;4994491;28;20030;-69
2023/03/07 00:38:51;;;;;;;0.38;0.38;;;14.80;68.90;;;;;;4993999;28;20370;-69
2023/03/07 00:41:24;;;;;;;1.95;0.47;;;14.80;69.00;;;;;;4993985;28;20551;-69
2023/03/07 00:43:50;;;;;;;0.40;0.40;;;14.80;69.10;;;;;;4993891;28;20029;-69
2023/03/07 00:46:17;;;;;;;0.95;0.47;;;14.80;69.20;;;;;;4993882;28;20030;-69
2023/03/07 00:48:43;;;;;;;0.75;0.38;;;14.80;69.00;;;;;;4993884;28;20022;-69
2023/03/07 00:51:10;;;;;;;0.60;0.40;;;14.80;69.20;;;;;;4994128;28;20019;-69
2023/03/07 00:53:36;;;;;;;1.65;0.52;;;14.80;69.10;;;;;;4993848;28;20030;-69
2023/03/07 00:56:06;;;;;;;0.68;0.40;;;14.80;69.10;;;;;;4993960;28;20023;-69
2023/03/07 00:58:33;;;;;;;0.40;0.40;;;14.80;69.10;;;;;;4993797;28;20018;-69
2023/03/07 01:00:59;;;;;;;0.40;0.40;;;14.80;69.00;;;;;;4994817;28;20022;-69
2023/03/07 01:03:25;;;;;;;0.30;0.30;;;14.80;69.10;;;;;;4993753;28;20026;-69
2023/03/07 01:05:51;;;;;;;0.40;0.40;;;14.70;69.00;;;;;;4993681;28;20045;-69
2023/03/07 01:08:17;;;;;;;1.67;0.50;;;14.80;69.00;;;;;;4994712;28;20488;-69
2023/03/07 01:10:42;;;;;;;0.40;0.40;;;14.80;69.00;;;;;;4993513;28;20495;-69
2023/03/07 01:13:08;;;;;;;0.40;0.40;;;14.70;69.00;;;;;;4993699;28;20412;-69
2023/03/07 01:15:34;;;;;;;0.68;0.50;;;14.80;69.20;;;;;;4993230;28;20492;-69
2023/03/07 01:18:00;;;;;;;0.50;0.50;;;14.70;69.20;;;;;;4994585;28;20105;-69
2023/03/07 01:20:26;;;;;;;0.45;0.45;;;14.80;69.20;;;;;;4993480;28;20030;-69
2023/03/07 01:22:51;;;;;;;1.98;0.32;;;14.70;69.20;;;;;;4993133;28;20096;-69
2023/03/07 01:25:17;;;;;;;3.40;0.75;;;14.70;69.20;;;;;;4994437;28;20038;-69
2023/03/07 01:27:43;;;;;;;0.32;0.32;;;14.70;69.30;;;;;;4993021;28;20028;-69
2023/03/07 01:30:09;;;;;;;2.58;0.63;;;14.70;69.20;;;;;;4994203;28;20027;-69
2023/03/07 01:32:35;;;;;;;5.32;0.50;;;14.70;69.20;;;;;;4993539;28;20015;-69
2023/03/07 01:35:00;;;;;;;0.38;0.30;;;14.70;69.30;;;;;;4975080;28;20030;-69
2023/03/07 01:37:26;;;;;;;0.43;0.43;;;14.70;69.30;;;;;;4974971;28;20481;-69
2023/03/07 01:39:52;;;;;;;0.50;0.40;;;14.70;69.30;;;;;;4974677;28;20038;-69
2023/03/07 01:42:18;;;;;;;0.70;0.55;;;14.70;69.20;;;;;;4974667;28;20026;-69
2023/03/07 01:45:34;;;;;;;0.30;0.30;;;14.70;69.20;;;;;;4974336;28;20533;-69
2023/03/07 01:48:00;;;;;;;1.67;0.80;;;14.70;69.20;;;;;;5011303;28;20523;-69
2023/03/07 01:50:26;;;;;;;0.57;0.40;;;14.70;69.20;;;;;;4995281;28;20033;-69
2023/03/07 01:52:56;;;;;;;0.98;0.60;;;14.70;69.20;;;;;;5003864;28;20030;-69
2023/03/07 01:55:29;;;;;;;1.95;0.50;;;14.70;69.30;;;;;;4997309;28;20037;-69
2023/03/07 01:57:55;;;;;;;0.93;0.50;;;14.70;69.40;;;;;;4998642;28;20025;-69
2023/03/07 02:00:30;;;;;;;1.17;0.50;;;14.70;69.30;;;;;;5014949;28;20030;-69
2023/03/07 02:03:24;;;;;;;1.00;0.60;;;14.70;69.40;;;;;;5001051;28;20087;-69
2023/03/07 02:05:57;;;;;;;0.47;0.43;;;14.70;69.20;;;;;;5017421;28;20033;-69
2023/03/07 02:08:24;;;;;;;0.80;0.50;;;14.70;69.40;;;;;;4999148;28;20034;-69
2023/03/07 02:10:49;;;;;;;0.40;0.40;;;14.70;69.30;;;;;;4998684;28;20092;-69
2023/03/07 02:13:15;;;;;;;0.35;0.30;;;14.70;69.20;;;;;;5031127;28;20025;-68
2023/03/07 02:15:41;;;;;;;0.43;0.40;;;14.70;69.20;;;;;;4998604;28;20037;-68
2023/03/07 02:18:07;;;;;;;0.40;0.40;;;14.70;69.20;;;;;;5011252;28;20037;-69
2023/03/07 02:21:08;;;;;;;0.88;0.50;;;14.70;69.20;;;;;;4994650;28;20033;-69
2023/03/07 02:23:57;;;;;;;0.63;0.40;;;14.70;69.20;;;;;;4973200;28;20061;-68
2023/03/07 02:26:45;;;;;;;0.70;0.55;;;14.70;69.20;;;;;;4987806;28;20121;-68
2023/03/07 02:29:11;;;;;;;0.68;0.50;;;14.70;69.20;;;;;;4973284;28;20054;-68
2023/03/07 02:31:37;;;;;;;0.40;0.40;;;14.70;69.30;;;;;;4989233;28;20027;-69
2023/03/07 02:34:03;;;;;;;0.50;0.50;;;14.70;69.20;;;;;;4986118;28;20027;-69
2023/03/07 02:36:33;;;;;;;0.77;0.57;;;14.70;69.30;;;;;;4992881;28;20042;-69
2023/03/07 02:38:59;;;;;;;1.73;0.55;;;14.60;69.30;;;;;;4990466;28;20056;-69
2023/03/07 02:41:27;;;;;;;0.70;0.60;;;14.70;69.40;;;;;;4989850;28;20022;-69
2023/03/07 02:43:53;;;;;;;0.57;0.50;;;14.70;69.40;;;;;;4973670;28;20030;-69
2023/03/07 02:46:19;;;;;;;0.60;0.50;;;14.70;69.40;;;;;;4991909;28;20030;-69
2023/03/07 02:48:45;;;;;;;0.60;0.50;;;14.60;69.50;;;;;;4990469;28;20026;-69
2023/03/07 02:51:11;;;;;;;0.65;0.60;;;14.60;69.50;;;;;;4992558;28;20423;-70
2023/03/07 02:53:37;;;;;;;0.82;0.52;;;14.60;69.50;;;;;;4992145;28;20026;-69
2023/03/07 02:56:02;;;;;;;1.83;0.50;;;14.60;69.50;;;;;;4993629;28;20061;-69
2023/03/07 02:58:28;;;;;;;3.58;0.60;;;14.60;69.40;;;;;;4993322;28;20100;-68
2023/03/07 03:00:54;;;;;;;1.67;0.60;;;14.70;69.50;;;;;;4992222;28;20034;-69
2023/03/07 03:03:20;;;;;;;0.50;0.50;;;14.60;69.50;;;;;;4993657;28;20031;-69
2023/03/07 03:05:45;;;;;;;0.50;0.40;;;14.60;69.30;;;;;;4992261;28;20022;-69
2023/03/07 03:08:12;;;;;;;1.23;0.47;;;14.60;69.30;;;;;;4991418;28;20713;-69
2023/03/07 03:10:38;;;;;;;2.70;0.65;;;14.60;69.50;;;;;;4991604;28;20393;-69
2023/03/07 03:13:04;;;;;;;0.70;0.70;;;14.60;69.60;;;;;;4974163;28;20090;-71
2023/03/07 03:15:29;;;;;;;1.23;0.50;;;14.60;69.50;;;;;;4994414;28;20030;-69
2023/03/07 03:17:55;;;;;;;2.15;0.43;;;14.60;69.50;;;;;;5006030;28;20041;-69
2023/03/07 03:20:21;;;;;;;1.95;0.50;;;14.70;69.50;;;;;;5007614;28;20049;-69
2023/03/07 03:22:47;;;;;;;1.85;0.60;;;14.60;69.60;;;;;;5006982;28;20041;-69
2023/03/07 03:25:13;;;;;;;0.55;0.32;;;14.60;69.60;;;;;;5005696;28;20527;-69
2023/03/07 03:27:38;;;;;;;2.60;0.63;;;14.60;69.70;;;;;;5005911;28;20034;-69
2023/03/07 03:30:05;;;;;;;2.38;0.60;;;14.60;69.60;;;;;;5006293;28;20414;-69
2023/03/07 03:32:32;;;;;;;0.32;0.32;;;14.60;69.60;;;;;;5006025;28;20026;-69
2023/03/07 03:34:58;;;;;;;1.02;0.40;;;14.60;69.60;;;;;;5003985;28;20049;-69
2023/03/07 03:37:24;;;;;;;0.60;0.40;;;14.60;69.70;;;;;;5007360;28;20030;-69
2023/03/07 03:39:51;;;;;;;1.95;0.60;;;14.60;69.70;;;;;;5007478;28;20088;-69
2023/03/07 03:42:17;;;;;;;0.70;0.50;;;14.60;70.00;;;;;;5006410;28;20101;-69
2023/03/07 03:44:43;;;;;;;0.50;0.50;;;14.60;69.60;;;;;;5006864;28;20125;-69
2023/03/07 03:47:08;;;;;;;2.97;0.50;;;14.60;69.60;;;;;;5006983;28;20014;-69
2023/03/07 03:49:34;;;;;;;0.55;0.47;;;14.60;69.70;;;;;;5007185;28;20129;-69
2023/03/07 03:51:59;;;;;;;1.13;0.50;;;14.60;69.70;;;;;;5006731;28;20050;-69
2023/03/07 03:54:25;;;;;;;1.05;0.47;;;14.60;69.70;;;;;;5006566;28;20461;-69
2023/03/07 03:56:53;;;;;;;1.00;0.77;;;14.60;70.70;;;;;;5009402;28;20555;-69
2023/03/07 03:59:19;;;;;;;1.27;0.50;;;14.60;69.60;;;;;;5007686;28;20400;-69
2023/03/07 04:01:44;;;;;;;0.55;0.40;;;14.50;69.60;;;;;;5009581;28;20026;-69
2023/03/07 04:04:11;;;;;;;2.78;0.55;;;14.60;69.70;;;;;;5010100;28;20034;-69
2023/03/07 04:06:37;;;;;;;2.00;0.57;;;14.50;69.60;;;;;;5009148;28;20109;-69
2023/03/07 04:09:04;;;;;;;0.50;0.43;;;14.50;69.70;;;;;;5010094;28;20100;-69
2023/03/07 04:11:29;;;;;;;0.60;0.60;;;14.50;69.60;;;;;;5008786;28;20482;-69
2023/03/07 04:13:55;;;;;;;1.77;0.40;;;14.50;69.70;;;;;;5009379;28;20066;-69
2023/03/07 04:16:23;;;;;;;0.60;0.45;;;14.50;69.60;;;;;;5009354;28;20476;-69
2023/03/07 04:18:49;;;;;;;0.50;0.40;;;14.50;69.70;;;;;;5007301;28;20405;-69
2023/03/07 04:21:15;;;;;;;0.95;0.50;;;14.50;69.90;;;;;;5008732;28;20021;-68
2023/03/07 04:23:41;;;;;;;3.85;0.57;;;14.50;69.80;;;;;;5009741;28;20061;-69
2023/03/07 04:26:07;;;;;;;1.73;0.50;;;14.50;69.90;;;;;;5008853;28;20040;-68
2023/03/07 04:28:44;;;;;;;0.52;0.40;;;14.50;69.80;;;;;;5009023;28;20033;-69
2023/03/07 04:31:10;;;;;;;3.90;0.75;;;14.50;69.90;;;;;;5008894;28;20514;-68
2023/03/07 04:33:36;;;;;;;0.32;0.32;;;14.50;69.90;;;;;;4994767;28;20465;-68
2023/03/07 04:36:01;;;;;;;0.60;0.52;;;14.50;69.90;;;;;;4976477;28;20112;-68
2023/03/07 04:38:27;;;;;;;0.50;0.50;;;14.50;69.80;;;;;;4989870;28;20017;-68
2023/03/07 04:40:53;;;;;;;0.73;0.40;;;14.50;69.80;;;;;;5007193;28;20030;-69
2023/03/07 04:43:20;;;;;;;1.42;0.60;;;14.50;70.00;;;;;;4995868;28;20030;-68
2023/03/07 04:45:46;;;;;;;0.35;0.35;;;14.50;69.90;;;;;;4995817;28;20030;-69
2023/03/07 04:48:11;;;;;;;0.70;0.47;;;14.40;69.70;;;;;;4994050;28;20030;-68
2023/03/07 04:50:37;;;;;;;1.42;0.60;;;14.40;69.70;;;;;;4995620;28;20127;-69
2023/03/07 04:53:02;;;;;;;0.35;0.35;;;14.40;69.70;;;;;;4994351;28;20022;-68
2023/03/07 04:55:28;;;;;;;0.40;0.40;;;14.40;69.90;;;;;;4995658;28;20027;-69
2023/03/07 04:57:56;;;;;;;0.40;0.40;;;14.50;69.90;;;;;;4995701;28;20061;-68
2023/03/07 05:00:22;;;;;;;0.43;0.43;;;14.40;69.90;;;;;;4995665;28;20105;-69
2023/03/07 05:02:48;;;;;;;0.43;0.43;;;14.50;70.00;;;;;;4994378;28;20117;-68
2023/03/07 05:05:14;;;;;;;0.93;0.38;;;14.40;69.90;;;;;;4995452;28;20041;-68
2023/03/07 05:07:39;;;;;;;1.00;0.50;;;14.40;69.90;;;;;;4993153;28;20519;-68
2023/03/07 05:10:06;;;;;;;0.88;0.70;;;14.40;70.00;;;;;;4995146;28;20026;-69
2023/03/07 05:12:31;;;;;;;1.23;0.50;;;14.40;70.00;;;;;;4993986;28;20085;-68
2023/03/07 05:14:57;;;;;;;0.60;0.60;;;14.40;70.00;;;;;;4995309;28;20023;-68
2023/03/07 05:17:22;;;;;;;0.52;0.50;;;14.40;70.10;;;;;;4993967;28;20389;-68
2023/03/07 05:19:48;;;;;;;0.57;0.50;;;14.40;70.00;;;;;;4995160;28;20034;-68
2023/03/07 05:22:14;;;;;;;0.30;0.30;;;14.40;70.10;;;;;;4994601;28;20057;-68
2023/03/07 05:24:39;;;;;;;0.40;0.40;;;14.40;70.20;;;;;;4995235;28;20034;-68
2023/03/07 05:27:05;;;;;;;0.85;0.38;;;14.40;70.20;;;;;;4994724;28;20022;-69
2023/03/07 05:29:31;;;;;;;0.60;0.60;;;14.40;70.20;;;;;;4995024;28;20030;-69
2023/03/07 05:31:57;;;;;;;1.35;0.40;;;14.40;70.30;;;;;;4993654;28;20397;-69
2023/03/07 05:34:23;;;;;;;1.85;0.47;;;14.40;70.30;;;;;;4994996;28;20026;-69
2023/03/07 05:36:48;;;;;;;4.13;0.45;;;14.40;70.40;;;;;;4994706;28;20018;-69
2023/03/07 05:39:15;;;;;;;0.40;0.40;;;14.40;70.30;;;;;;4993520;28;20370;-69
2023/03/07 05:41:40;;;;;;;0.50;0.50;;;14.40;70.30;;;;;;4988355;28;20018;-69
2023/03/07 05:44:06;;;;;;;2.30;0.60;;;14.30;70.30;;;;;;4993617;28;20049;-69
2023/03/07 05:46:32;;;;;;;0.45;0.45;;;14.30;70.30;;;;;;4990813;28;20014;-69
2023/03/07 05:48:58;;;;;;;0.80;0.47;;;14.30;70.50;;;;;;4994714;28;20492;-69
2023/03/07 05:51:23;;;;;;;0.50;0.50;;;14.30;70.50;;;;;;4994243;28;20093;-69
2023/03/07 05:53:49;;;;;;;0.60;0.45;;;14.30;70.40;;;;;;4994529;28;20392;-69
2023/03/07 05:56:15;;;;;;;0.50;0.50;;;14.30;70.40;;;;;;4994457;28;20034;-69
2023/03/07 05:58:40;;;;;;;0.55;0.55;;;14.30;70.50;;;;;;4994497;28;20092;-69
2023/03/07 06:01:06;;;;;;;0.40;0.40;;;14.30;70.30;;;;;;4994506;28;20022;-69
2023/03/07 06:03:31;;;;;;;0.57;0.40;;;14.30;70.30;;;;;;4992829;28;20037;-69
2023/03/07 06:05:57;;;;;;;2.05;0.50;;;14.30;70.30;;;;;;4994117;28;20057;-69
2023/03/07 06:08:23;;;;;;;0.40;0.40;;;14.30;70.30;;;;;;4993161;28;20057;-69
2023/03/07 06:10:52;;;;;;;0.30;0.30;;;14.30;70.40;;;;;;4993187;28;20058;-69
2023/03/07 06:13:19;;;;;;;0.95;0.40;;;14.30;70.40;;;;;;4994226;28;20030;-69
2023/03/07 06:15:48;;;;;;;0.30;0.30;;;14.30;70.30;;;;;;4992936;28;20023;-69
2023/03/07 06:18:14;;;;;;;0.57;0.50;;;14.30;70.40;;;;;;4994089;28;20137;-69
2023/03/07 06:20:39;;;;;;;0.43;0.40;;;14.30;70.40;;;;;;4992437;28;20101;-69
2023/03/07 06:23:05;;;;;;;0.52;0.32;;;14.30;70.40;;;;;;5004452;28;20107;-69
2023/03/07 06:25:31;;;;;;;0.45;0.40;;;14.30;70.50;;;;;;5013658;28;20029;-69
2023/03/07 06:27:59;;;;;;;0.40;0.40;;;14.30;70.40;;;;;;5013443;28;20030;-69
2023/03/07 06:30:26;;;;;;;0.40;0.40;;;14.30;70.50;;;;;;5012498;28;20026;-69
2023/03/07 06:32:51;;;;;;;0.45;0.40;;;14.30;70.40;;;;;;5010939;28;20018;-69
2023/03/07 06:35:17;;;;;;;1.42;0.50;;;14.30;70.90;;;;;;4992542;28;20022;-69
2023/03/07 06:37:42;;;;;;;0.47;0.47;;;14.30;70.50;;;;;;4993728;28;20484;-69
2023/03/07 06:40:09;;;;;;;0.50;0.50;;;14.30;70.50;;;;;;4995318;28;20109;-69
2023/03/07 06:42:35;;;;;;;0.73;0.50;;;14.20;70.70;;;;;;5000384;28;20022;-69
2023/03/07 06:45:01;;;;;;;0.75;0.40;;;14.20;70.90;;;;;;5001295;28;20381;-69
2023/03/07 06:47:26;;;;;;;0.52;0.40;;;14.20;70.90;;;;;;5000119;28;20029;-69
2023/03/07 06:49:52;;;;;;;0.30;0.30;;;14.20;70.90;;;;;;4999795;28;20019;-69
2023/03/07 06:52:18;;;;;;;0.40;0.40;;;14.20;70.90;;;;;;5000149;28;20109;-69
2023/03/07 06:54:43;;;;;;;0.40;0.40;;;14.20;71.00;;;;;;4999348;28;20018;-69
2023/03/07 06:57:09;;;;;;;1.65;0.35;;;14.20;71.00;;;;;;5000615;28;20444;-69
2023/03/07 06:59:35;;;;;;;0.60;0.50;;;14.20;71.00;;;;;;5001908;28;20065;-69
2023/03/07 07:02:02;;;;;;;0.57;0.55;;;14.20;71.00;;;;;;5000902;28;20057;-69
2023/03/07 07:04:27;;;;;;;0.38;0.38;;;14.20;71.00;;;;;;5002002;28;20022;-69
2023/03/07 07:06:53;;;;;;;0.38;0.32;;;14.20;71.00;;;;;;5000715;28;20034;-69
2023/03/07 07:09:19;;;;;;;1.50;0.40;;;14.30;71.10;;;;;;5005159;28;20014;-69
2023/03/07 07:11:44;;;;;;;0.50;0.38;;;14.30;70.30;;;;;;5006375;28;20424;-70
2023/03/07 07:14:10;;;;;;;0.40;0.30;;;14.30;69.50;;;;;;5004788;28;20026;-69
2023/03/07 07:16:36;;;;;;;0.30;0.30;;;14.30;69.10;;;;;;5006027;28;20037;-70
2023/03/07 07:19:01;;;;;;;0.40;0.40;;;14.40;68.90;;;;;;5006504;28;20395;-69
2023/03/07 07:21:27;;;;;;;1.20;0.45;;;14.40;68.70;;;;;;5005334;28;20030;-70
2023/03/07 07:23:55;;;;;;;0.38;0.38;;;14.50;68.60;;;;;;5005965;28;20556;-69
2023/03/07 07:26:22;;;;;;;0.80;0.40;;;14.40;68.30;;;;;;5005261;28;20022;-69
2023/03/07 07:28:47;;;;;;;0.40;0.40;;;14.50;68.20;;;;;;5005743;28;20068;-69
2023/03/07 07:31:13;;;;;;;0.43;0.38;;;14.50;68.10;;;;;;5007342;28;20022;-69
2023/03/07 07:33:39;;;;;;;0.40;0.40;;;14.50;68.00;;;;;;5008220;28;20031;-69
2023/03/07 07:36:06;;;;;;;0.40;0.40;;;14.60;67.90;;;;;;5007840;28;20061;-69
2023/03/07 07:38:31;;;;;;;0.52;0.40;;;14.60;67.80;;;;;;4998558;28;20029;-69
2023/03/07 07:40:57;;;;;;;0.40;0.40;;;14.60;67.70;;;;;;4994205;28;20030;-69
2023/03/07 07:43:22;;;;;;;1.17;0.43;;;14.60;67.80;;;;;;4995541;28;20022;-69
2023/03/07 07:45:48;;;;;;;5.80;0.75;;;14.70;67.70;;;;;;4996028;28;20044;-69
2023/03/07 07:48:14;;;;;;;28.35;5.72;;;14.70;67.70;;;;;;4995248;28;20122;-69
2023/03/07 07:50:39;;;;;;;22.63;4.95;;;14.70;68.60;;;;;;4994409;28;20397;-69
2023/03/07 07:53:05;;;;;;;18.85;3.47;;;14.70;69.10;;;;;;4996275;28;20022;-69
2023/03/07 07:55:31;;;;;;;21.33;3.25;;;14.80;69.30;;;;;;4978718;28;20101;-69
2023/03/07 07:57:56;;;;;;;12.32;3.58;;;14.80;69.20;;;;;;4978844;28;20033;-69
2023/03/07 08:00:22;;;;;;;11.93;2.42;;;14.80;68.90;;;;;;4994599;28;20542;-69
2023/03/07 08:02:48;;;;;;;15.95;3.38;;;14.90;68.90;;;;;;4991679;28;20026;-69
2023/03/07 08:05:14;;;;;;;15.23;3.05;;;14.90;68.70;;;;;;4985225;28;20101;-69
2023/03/07 08:07:40;;;;;;;10.65;2.28;;;14.90;68.60;;;;;;4986071;28;20501;-69
2023/03/07 08:10:06;;;;;;;19.20;2.83;;;14.90;68.50;;;;;;4975196;28;20038;-69
2023/03/07 08:12:32;;;;;;;14.15;2.30;;;14.90;68.40;;;;;;4988698;28;20026;-69
2023/03/07 08:14:58;;;;;;;7.63;2.15;;;14.90;68.20;;;;;;4995598;28;20034;-69
2023/03/07 08:17:23;;;;;;;11.60;2.70;;;14.90;68.10;;;;;;4995534;28;20019;-69
2023/03/07 08:19:49;;;;;;;8.85;2.28;;;14.90;68.10;;;;;;4992651;28;20031;-69
2023/03/07 08:22:15;;;;;;;8.60;2.05;;;15.00;68.00;;;;;;4975869;28;20452;-70
2023/03/07 08:24:41;;;;;;;9.70;2.40;;;15.00;67.90;;;;;;4976321;28;20054;-69
2023/03/07 08:27:07;;;;;;;10.07;2.38;;;15.00;67.80;;;;;;4976244;28;20389;-69
2023/03/07 08:29:34;;;;;;;6.93;2.13;;;15.00;67.70;;;;;;4975047;28;20069;-69
2023/03/07 08:31:59;;;;;;;7.88;2.00;;;15.00;67.70;;;;;;4975792;28;20019;-69
2023/03/07 08:34:25;;;;;;;5.80;2.00;;;15.00;67.60;;;;;;4990704;28;20505;-69
2023/03/07 08:36:51;;;;;;;9.27;2.58;;;15.00;67.60;;;;;;4995354;28;20018;-69
2023/03/07 08:39:17;;;;;;;7.82;2.03;;;15.00;67.60;;;;;;4995358;28;20018;-69
2023/03/07 08:41:43;;;;;;;7.00;1.77;;;15.00;67.40;;;;;;4994352;28;20023;-69
2023/03/07 08:44:09;;;;;;;5.45;1.75;;;15.10;67.50;;;;;;4993864;28;20109;-69
2023/03/07 08:46:34;;;;;;;3.80;1.58;;;15.10;67.40;;;;;;4993881;28;20018;-69
2023/03/07 08:49:00;;;;;;;6.88;2.03;;;15.10;67.40;;;;;;4995212;28;20034;-69
2023/03/07 08:51:25;;;;;;;4.03;2.15;;;15.10;67.40;;;;;;4994150;28;20019;-69
2023/03/07 08:53:51;;;;;;;5.90;1.73;;;15.10;67.40;;;;;;4994102;28;20448;-69
2023/03/07 08:56:17;;;;;;;5.05;1.60;;;15.10;67.30;;;;;;4995249;28;20112;-69
2023/03/07 08:58:43;;;;;;;3.72;1.48;;;15.10;67.30;;;;;;4994745;28;20027;-69
2023/03/07 09:01:09;;;;;;;5.60;2.03;;;15.10;67.30;;;;;;4995047;28;20408;-69
2023/03/07 09:03:35;;;;;;;5.47;1.60;;;15.10;67.20;;;;;;4993790;28;20033;-69
2023/03/07 09:06:01;;;;;;;7.50;1.90;;;15.10;67.20;;;;;;4977536;28;20401;-69
2023/03/07 09:08:27;;;;;;;4.25;1.33;;;15.10;67.20;;;;;;4977644;28;20026;-69
2023/03/07 09:10:52;;;;;;;3.97;1.60;;;15.20;67.30;;;;;;4994671;28;20025;-69
2023/03/07 09:13:18;;;;;;;4.90;1.63;;;15.20;67.20;;;;;;4994444;28;20033;-69
2023/03/07 09:15:44;;;;;;;5.57;1.50;;;15.20;67.20;;;;;;4994911;28;20045;-69
2023/03/07 09:18:10;;;;;;;4.60;1.48;;;15.20;67.20;;;;;;4993775;28;20030;-69
2023/03/07 09:20:38;;;;;;;4.80;1.58;;;15.20;67.20;;;;;;4994481;28;20517;-69
2023/03/07 09:23:04;;;;;;;3.28;1.45;;;15.20;67.20;;;;;;4993338;28;20093;-69
2023/03/07 09:25:30;;;;;;;5.95;1.40;;;15.20;67.00;;;;;;4993185;28;20030;-70
2023/03/07 09:27:56;;;;;;;4.80;1.60;;;15.20;67.00;;;;;;4994398;28;20030;-69
2023/03/07 09:30:21;;;;;;;2.72;1.23;;;15.20;67.00;;;;;;4994540;28;20034;-69
2023/03/07 09:32:48;;;;;;;5.45;1.20;;;15.20;66.90;;;;;;4994342;28;20030;-69
2023/03/07 09:35:14;;;;;;;5.35;1.33;;;15.30;67.00;;;;;;4994357;28;20428;-69
2023/03/07 09:37:39;;;;;;;3.53;1.33;;;15.30;66.90;;;;;;4993229;28;20029;-69
2023/03/07 09:40:06;;;;;;;3.58;1.02;;;15.30;66.80;;;;;;4994336;28;20054;-69
2023/03/07 09:42:56;;;;;;;2.45;1.20;;;15.20;66.70;;;;;;4993063;28;20026;-69
2023/03/07 09:45:30;;;;;;;4.40;1.55;;;15.30;66.70;;;;;;4993841;28;20030;-69
2023/03/07 09:48:25;;;;;;;3.05;0.98;;;15.30;66.80;;;;;;4994290;28;20034;-69
2023/03/07 09:51:29;;;;;;;2.15;0.98;;;15.30;66.70;;;;;;4994610;28;20027;-69
2023/03/07 09:54:32;;;;;;;2.38;1.27;;;15.30;66.60;;;;;;5011052;28;20038;-69
2023/03/07 09:56:58;;;;;;;3.80;1.17;;;15.30;66.50;;;;;;5011185;28;20022;-69
2023/03/07 09:59:42;;;;;;;4.05;1.23;;;15.30;66.50;;;;;;4994584;28;20638;-69
2023/03/07 10:02:26;;;;;;;2.35;1.25;;;15.30;66.50;;;;;;5011282;28;20029;-69
2023/03/07 10:05:07;;;;;;;3.80;1.33;;;15.30;66.30;;;;;;5017786;28;20042;-69
2023/03/07 10:07:32;;;;;;;2.95;1.02;;;15.30;66.40;;;;;;5011129;28;20038;-69
2023/03/07 10:09:59;;;;;;;1.77;0.85;;;15.30;66.40;;;;;;4994983;28;20444;-69
2023/03/07 10:12:55;;;;;;;1.05;0.77;;;15.30;66.30;;;;;;5010917;28;20149;-69
2023/03/07 10:15:31;;;;;;;2.17;1.02;;;15.30;66.40;;;;;;5010778;28;20030;-69
2023/03/07 10:18:14;;;;;;;1.55;0.93;;;15.30;66.30;;;;;;5027569;28;20068;-69
2023/03/07 10:21:20;;;;;;;1.40;0.95;;;15.30;66.20;;;;;;5027316;28;20037;-69
2023/03/07 10:23:55;;;;;;;2.42;0.90;;;15.30;66.20;;;;;;5008575;28;20244;-69
2023/03/07 10:26:32;;;;;;;2.25;0.90;;;15.30;66.10;;;;;;4993197;28;20544;-69
2023/03/07 10:29:00;;;;;;;2.53;0.93;;;15.30;66.10;;;;;;4992139;28;20037;-69
2023/03/07 10:31:33;;;;;;;1.38;1.08;;;15.30;66.10;;;;;;4992059;28;20105;-69
2023/03/07 10:33:59;;;;;;;2.53;0.88;;;15.30;66.10;;;;;;4992331;28;20156;-69
2023/03/07 10:36:42;;;;;;;1.95;0.88;;;15.30;66.00;;;;;;4992193;28;20093;-69
2023/03/07 10:39:21;;;;;;;0.80;0.70;;;15.30;66.00;;;;;;4992096;28;20076;-69
2023/03/07 10:41:46;;;;;;;1.63;0.90;;;15.30;66.00;;;;;;4991896;28;20076;-69
2023/03/07 10:44:14;;;;;;;1.75;0.82;;;15.30;65.90;;;;;;4993078;28;20447;-69
2023/03/07 10:46:40;;;;;;;1.17;0.82;;;15.40;65.90;;;;;;4991780;28;20484;-69
2023/03/07 10:49:05;;;;;;;0.98;0.88;;;15.30;65.90;;;;;;4992167;28;20045;-69
2023/03/07 10:51:53;;;;;;;2.83;1.05;;;15.30;65.80;;;;;;4992887;28;20033;-69
2023/03/07 10:54:23;;;;;;;1.63;0.90;;;15.40;66.80;;;;;;4992921;28;20539;-69
2023/03/07 10:57:15;;;;;;;1.50;0.82;;;15.40;65.70;;;;;;4991772;28;20038;-69
2023/03/07 10:59:47;;;;;;;1.08;0.98;;;15.40;65.90;;;;;;4991812;28;20415;-69
2023/03/07 11:02:39;;;;;;;1.27;0.75;;;15.40;65.70;;;;;;4991805;28;20014;-72
2023/03/07 11:05:27;;;;;;;1.42;0.82;;;15.40;65.70;;;;;;4991093;28;20567;-72
2023/03/07 11:07:53;;;;;;;1.30;0.57;;;15.40;65.70;;;;;;4991914;28;20088;-71
2023/03/07 11:10:30;;;;;;;1.40;0.90;;;15.40;65.70;;;;;;4992631;28;20031;-72
2023/03/07 11:12:55;;;;;;;1.15;0.60;;;15.40;65.60;;;;;;4991736;28;20026;-72
2023/03/07 11:15:26;;;;;;;2.53;1.00;;;15.40;65.60;;;;;;4991730;28;20081;-72
2023/03/07 11:17:52;;;;;;;2.15;0.80;;;15.40;65.60;;;;;;4991977;28;20027;-72
2023/03/07 11:20:18;;;;;;;1.67;0.80;;;15.40;65.60;;;;;;4991551;28;20093;-72
2023/03/07 11:22:45;;;;;;;0.98;0.52;;;15.40;65.60;;;;;;4992569;28;20441;-72
2023/03/07 11:25:25;;;;;;;1.15;0.77;;;15.40;65.60;;;;;;4992689;28;20033;-72
2023/03/07 11:27:52;;;;;;;2.10;0.68;;;15.40;65.50;;;;;;4991763;28;20110;-72
2023/03/07 11:30:41;;;;;;;0.90;0.70;;;15.40;65.50;;;;;;4991774;28;20037;-72
2023/03/07 11:33:15;;;;;;;1.75;0.55;;;15.40;65.50;;;;;;4991720;28;20107;-72
2023/03/07 11:36:15;;;;;;;1.23;0.80;;;15.40;65.40;;;;;;4991597;28;20022;-72
2023/03/07 11:38:59;;;;;;;1.45;0.80;;;15.40;65.30;;;;;;4974896;28;20464;-72
2023/03/07 11:41:27;;;;;;;1.17;0.80;;;15.40;65.40;;;;;;4991552;28;20030;-72
2023/03/07 11:44:11;;;;;;;1.33;0.57;;;15.40;65.40;;;;;;4992732;28;20027;-72
2023/03/07 11:46:45;;;;;;;0.75;0.55;;;15.40;65.30;;;;;;4992512;28;20146;-72
2023/03/07 11:49:20;;;;;;;1.27;0.75;;;15.40;65.30;;;;;;4991328;28;20108;-72
2023/03/07 11:51:56;;;;;;;0.88;0.60;;;15.40;65.30;;;;;;4991344;28;20072;-72
2023/03/07 11:54:43;;;;;;;0.52;0.50;;;15.40;65.30;;;;;;4992403;28;20101;-72
2023/03/07 11:57:45;;;;;;;1.75;0.70;;;15.40;65.30;;;;;;4992630;28;20026;-72
2023/03/07 12:00:17;;;;;;;1.27;0.70;;;15.40;65.20;;;;;;4991223;28;20022;-72
2023/03/07 12:03:11;;;;;;;1.03;0.60;;;15.40;65.20;;;;;;4991294;28;20118;-72
2023/03/07 12:05:55;;;;;;;0.68;0.57;;;15.40;65.20;;;;;;4990978;28;20041;-72
2023/03/07 12:08:29;;;;;;;1.75;0.73;;;15.40;65.20;;;;;;4991180;28;20097;-72
2023/03/07 12:11:23;;;;;;;0.50;0.50;;;15.40;65.20;;;;;;4992314;28;20054;-72
2023/03/07 12:13:57;;;;;;;1.40;0.70;;;15.50;65.20;;;;;;4992621;28;20426;-72
2023/03/07 12:16:26;;;;;;;0.90;0.50;;;15.40;65.20;;;;;;4992323;28;20026;-72
2023/03/07 12:19:26;;;;;;;1.17;0.68;;;15.40;65.10;;;;;;4995805;28;20057;-72
2023/03/07 12:22:00;;;;;;;1.92;0.60;;;15.50;65.10;;;;;;4994049;28;20397;-72
2023/03/07 12:24:49;;;;;;;0.38;0.38;;;15.40;65.10;;;;;;4995741;28;20389;-72
2023/03/07 12:27:22;;;;;;;0.70;0.60;;;15.50;65.10;;;;;;4995350;28;20052;-72
2023/03/07 12:30:02;;;;;;;1.00;0.70;;;15.40;65.10;;;;;;4994626;28;20025;-72
2023/03/07 12:32:28;;;;;;;1.58;0.50;;;15.40;65.00;;;;;;4994406;28;20022;-72
2023/03/07 12:35:20;;;;;;;1.05;0.45;;;15.50;65.10;;;;;;4994356;28;20022;-72
2023/03/07 12:37:55;;;;;;;0.40;0.40;;;15.50;65.60;;;;;;4995736;28;20042;-72
2023/03/07 12:40:44;;;;;;;0.63;0.50;;;15.40;65.00;;;;;;4994353;28;20018;-72
2023/03/07 12:43:19;;;;;;;0.60;0.40;;;15.50;65.10;;;;;;4994580;28;20049;-72
2023/03/07 12:45:56;;;;;;;0.50;0.50;;;15.40;65.00;;;;;;4994073;28;20102;-72
2023/03/07 12:48:42;;;;;;;0.50;0.50;;;15.50;65.00;;;;;;4994140;28;20030;-72
2023/03/07 12:51:10;;;;;;;0.88;0.47;;;15.40;64.90;;;;;;4995062;28;20050;-72
2023/03/07 12:53:46;;;;;;;0.95;0.60;;;15.50;65.00;;;;;;4988923;28;20026;-72
2023/03/07 12:56:17;;;;;;;1.15;0.50;;;15.40;64.90;;;;;;4979678;28;20018;-72
2023/03/07 12:58:49;;;;;;;0.65;0.50;;;15.50;65.00;;;;;;4993674;28;20022;-72